Decoded Metar for K2C8 ( in ) (IATA:) | Meteo·Mobile Aviation Weather
aviador You're here:

K2C8 Decoded Metar

in
Report Time2019-07-19 18:55:00
UTC Time2019-07-19 19:11:53
Flight Rules vfr VFR
Wind290° at 10 Gusting to 18 kt
Visibility9999 m
Phenomena:N/A
Clouds:N/A
Expected CloudBase > 5,200 ft AGL from Temp-Dew spread
CeilingNone
Temp26°C
Dew Point13°C (45% RH)
AAT23.4°C
QNH1005 hPa
Raw Report
K2C8 191855Z AUTO 29010G18KT 10SM CLR 26/13 A2968 RMK AO2=

Extra information for K2C8:More info

Social comments